sensor_id;sensor_type;location;lat;lon;timestamp;P1;durP1;ratioP1;P2;durP2;ratioP2
31990;SDS011;18508;49.386;8.370;2024-02-16T00:00:28;12.65;;;6.72;;
31990;SDS011;18508;49.386;8.370;2024-02-16T00:02:58;13.68;;;7.18;;
31990;SDS011;18508;49.386;8.370;2024-02-16T00:05:29;13.35;;;6.95;;
31990;SDS011;18508;49.386;8.370;2024-02-16T00:08:02;11.82;;;7.72;;
31990;SDS011;18508;49.386;8.370;2024-02-16T00:10:32;13.68;;;6.90;;
31990;SDS011;18508;49.386;8.370;2024-02-16T00:13:04;13.60;;;6.90;;
31990;SDS011;18508;49.386;8.370;2024-02-16T00:15:35;12.52;;;7.35;;
31990;SDS011;18508;49.386;8.370;2024-02-16T00:20:37;14.30;;;8.27;;
31990;SDS011;18508;49.386;8.370;2024-02-16T00:23:06;14.73;;;8.40;;
31990;SDS011;18508;49.386;8.370;2024-02-16T00:25:37;14.55;;;8.20;;
31990;SDS011;18508;49.386;8.370;2024-02-16T00:28:08;11.18;;;8.07;;
31990;SDS011;18508;49.386;8.370;2024-02-16T00:30:38;13.25;;;8.50;;
31990;SDS011;18508;49.386;8.370;2024-02-16T00:33:08;12.32;;;7.70;;
31990;SDS011;18508;49.386;8.370;2024-02-16T00:35:39;12.43;;;8.80;;
31990;SDS011;18508;49.386;8.370;2024-02-16T00:38:08;13.70;;;8.55;;
31990;SDS011;18508;49.386;8.370;2024-02-16T00:40:39;18.10;;;7.75;;
31990;SDS011;18508;49.386;8.370;2024-02-16T00:43:10;13.15;;;7.32;;
31990;SDS011;18508;49.386;8.370;2024-02-16T00:45:40;13.75;;;7.72;;
31990;SDS011;18508;49.386;8.370;2024-02-16T00:48:12;12.25;;;8.07;;
31990;SDS011;18508;49.386;8.370;2024-02-16T00:50:43;13.52;;;7.55;;
31990;SDS011;18508;49.386;8.370;2024-02-16T00:53:12;13.27;;;7.80;;
31990;SDS011;18508;49.386;8.370;2024-02-16T00:55:42;13.38;;;8.52;;
31990;SDS011;18508;49.386;8.370;2024-02-16T00:58:12;14.40;;;8.95;;
31990;SDS011;18508;49.386;8.370;2024-02-16T01:00:41;14.63;;;9.13;;
31990;SDS011;18508;49.386;8.370;2024-02-16T01:03:11;14.25;;;8.52;;
31990;SDS011;18508;49.386;8.370;2024-02-16T01:05:41;18.98;;;9.30;;
31990;SDS011;18508;49.386;8.370;2024-02-16T01:08:12;15.10;;;10.18;;
31990;SDS011;18508;49.386;8.370;2024-02-16T01:10:41;16.15;;;9.43;;
31990;SDS011;18508;49.386;8.370;2024-02-16T01:13:11;15.05;;;9.10;;
31990;SDS011;18508;49.386;8.370;2024-02-16T01:15:40;14.02;;;8.60;;
31990;SDS011;18508;49.386;8.370;2024-02-16T01:18:13;15.35;;;8.88;;
31990;SDS011;18508;49.386;8.370;2024-02-16T01:20:45;15.40;;;8.82;;
31990;SDS011;18508;49.386;8.370;2024-02-16T01:23:15;13.27;;;7.40;;
31990;SDS011;18508;49.386;8.370;2024-02-16T01:25:45;12.50;;;8.52;;
31990;SDS011;18508;49.386;8.370;2024-02-16T01:28:17;14.48;;;8.50;;
31990;SDS011;18508;49.386;8.370;2024-02-16T01:30:46;17.35;;;9.40;;
31990;SDS011;18508;49.386;8.370;2024-02-16T01:33:15;13.45;;;9.88;;
31990;SDS011;18508;49.386;8.370;2024-02-16T01:35:47;14.15;;;10.30;;
31990;SDS011;18508;49.386;8.370;2024-02-16T01:38:16;15.95;;;10.70;;
31990;SDS011;18508;49.386;8.370;2024-02-16T01:40:45;13.95;;;9.65;;
31990;SDS011;18508;49.386;8.370;2024-02-16T01:43:18;17.70;;;10.35;;
31990;SDS011;18508;49.386;8.370;2024-02-16T01:45:48;15.40;;;9.40;;
31990;SDS011;18508;49.386;8.370;2024-02-16T01:48:17;14.77;;;9.35;;
31990;SDS011;18508;49.386;8.370;2024-02-16T01:50:52;13.85;;;9.65;;
31990;SDS011;18508;49.386;8.370;2024-02-16T01:53:25;20.42;;;9.40;;
31990;SDS011;18508;49.386;8.370;2024-02-16T01:55:54;13.00;;;7.90;;
31990;SDS011;18508;49.386;8.370;2024-02-16T01:58:24;14.10;;;7.65;;
31990;SDS011;18508;49.386;8.370;2024-02-16T02:00:53;13.88;;;8.10;;
31990;SDS011;18508;49.386;8.370;2024-02-16T02:03:23;10.52;;;6.30;;
31990;SDS011;18508;49.386;8.370;2024-02-16T02:05:53;12.40;;;6.22;;
31990;SDS011;18508;49.386;8.370;2024-02-16T02:08:25;10.20;;;5.60;;
31990;SDS011;18508;49.386;8.370;2024-02-16T02:10:54;11.48;;;6.10;;
31990;SDS011;18508;49.386;8.370;2024-02-16T02:13:23;10.40;;;6.00;;
31990;SDS011;18508;49.386;8.370;2024-02-16T02:15:54;9.75;;;5.90;;
31990;SDS011;18508;49.386;8.370;2024-02-16T02:18:24;11.43;;;5.85;;
31990;SDS011;18508;49.386;8.370;2024-02-16T02:20:57;11.35;;;5.82;;
31990;SDS011;18508;49.386;8.370;2024-02-16T02:23:30;9.38;;;5.95;;
31990;SDS011;18508;49.386;8.370;2024-02-16T02:26:00;16.05;;;5.97;;
31990;SDS011;18508;49.386;8.370;2024-02-16T02:28:30;9.30;;;5.95;;
31990;SDS011;18508;49.386;8.370;2024-02-16T02:31:01;12.65;;;6.60;;
31990;SDS011;18508;49.386;8.370;2024-02-16T02:33:30;12.20;;;6.05;;
31990;SDS011;18508;49.386;8.370;2024-02-16T02:36:00;15.18;;;7.30;;
31990;SDS011;18508;49.386;8.370;2024-02-16T02:38:32;16.85;;;7.47;;
31990;SDS011;18508;49.386;8.370;2024-02-16T02:41:01;12.90;;;7.28;;
31990;SDS011;18508;49.386;8.370;2024-02-16T02:43:33;13.03;;;6.90;;
31990;SDS011;18508;49.386;8.370;2024-02-16T02:46:03;12.52;;;6.63;;
31990;SDS011;18508;49.386;8.370;2024-02-16T02:48:34;14.80;;;7.32;;
31990;SDS011;18508;49.386;8.370;2024-02-16T02:51:04;13.60;;;6.47;;
31990;SDS011;18508;49.386;8.370;2024-02-16T02:53:34;15.55;;;7.50;;
31990;SDS011;18508;49.386;8.370;2024-02-16T02:56:05;13.63;;;7.50;;
31990;SDS011;18508;49.386;8.370;2024-02-16T02:58:39;11.70;;;6.50;;
31990;SDS011;18508;49.386;8.370;2024-02-16T03:01:09;12.68;;;7.95;;
31990;SDS011;18508;49.386;8.370;2024-02-16T03:03:39;13.10;;;7.40;;
31990;SDS011;18508;49.386;8.370;2024-02-16T03:06:10;13.88;;;7.50;;
31990;SDS011;18508;49.386;8.370;2024-02-16T03:08:42;13.50;;;8.15;;
31990;SDS011;18508;49.386;8.370;2024-02-16T03:11:11;13.23;;;7.65;;
31990;SDS011;18508;49.386;8.370;2024-02-16T03:13:42;15.40;;;8.07;;
31990;SDS011;18508;49.386;8.370;2024-02-16T03:16:11;14.68;;;8.20;;
31990;SDS011;18508;49.386;8.370;2024-02-16T03:18:41;11.70;;;7.75;;
31990;SDS011;18508;49.386;8.370;2024-02-16T03:21:13;13.82;;;7.68;;
31990;SDS011;18508;49.386;8.370;2024-02-16T03:23:47;13.95;;;7.80;;
31990;SDS011;18508;49.386;8.370;2024-02-16T03:26:18;14.52;;;7.82;;
31990;SDS011;18508;49.386;8.370;2024-02-16T03:28:49;13.57;;;7.72;;
31990;SDS011;18508;49.386;8.370;2024-02-16T03:31:17;13.57;;;7.78;;
31990;SDS011;18508;49.386;8.370;2024-02-16T03:33:47;12.23;;;7.97;;
31990;SDS011;18508;49.386;8.370;2024-02-16T03:36:18;13.65;;;7.95;;
31990;SDS011;18508;49.386;8.370;2024-02-16T03:38:51;16.30;;;8.40;;
31990;SDS011;18508;49.386;8.370;2024-02-16T03:41:21;16.27;;;8.25;;
31990;SDS011;18508;49.386;8.370;2024-02-16T03:43:53;15.57;;;8.98;;
31990;SDS011;18508;49.386;8.370;2024-02-16T03:46:24;16.75;;;9.90;;
31990;SDS011;18508;49.386;8.370;2024-02-16T03:48:55;23.42;;;12.00;;
31990;SDS011;18508;49.386;8.370;2024-02-16T03:51:25;15.15;;;10.48;;
31990;SDS011;18508;49.386;8.370;2024-02-16T03:53:56;19.10;;;11.35;;
31990;SDS011;18508;49.386;8.370;2024-02-16T03:56:28;17.83;;;11.70;;
31990;SDS011;18508;49.386;8.370;2024-02-16T03:59:01;17.10;;;11.15;;
31990;SDS011;18508;49.386;8.370;2024-02-16T04:01:35;19.17;;;11.35;;
31990;SDS011;18508;49.386;8.370;2024-02-16T04:04:04;14.57;;;10.30;;
31990;SDS011;18508;49.386;8.370;2024-02-16T04:06:38;17.80;;;12.45;;
31990;SDS011;18508;49.386;8.370;2024-02-16T04:09:09;20.90;;;12.40;;
31990;SDS011;18508;49.386;8.370;2024-02-16T04:11:39;20.33;;;10.00;;
31990;SDS011;18508;49.386;8.370;2024-02-16T04:14:10;13.77;;;9.07;;
31990;SDS011;18508;49.386;8.370;2024-02-16T04:16:42;14.18;;;7.90;;
31990;SDS011;18508;49.386;8.370;2024-02-16T04:19:12;13.52;;;8.38;;
31990;SDS011;18508;49.386;8.370;2024-02-16T04:21:42;11.43;;;6.95;;
31990;SDS011;18508;49.386;8.370;2024-02-16T04:24:13;12.48;;;6.65;;
31990;SDS011;18508;49.386;8.370;2024-02-16T04:26:41;11.10;;;6.75;;
31990;SDS011;18508;49.386;8.370;2024-02-16T04:29:13;11.63;;;6.45;;
31990;SDS011;18508;49.386;8.370;2024-02-16T04:31:43;12.35;;;6.50;;
31990;SDS011;18508;49.386;8.370;2024-02-16T04:34:13;11.75;;;6.60;;
31990;SDS011;18508;49.386;8.370;2024-02-16T04:36:42;14.95;;;7.07;;
31990;SDS011;18508;49.386;8.370;2024-02-16T04:39:13;14.02;;;7.00;;
31990;SDS011;18508;49.386;8.370;2024-02-16T04:41:44;13.63;;;6.80;;
31990;SDS011;18508;49.386;8.370;2024-02-16T04:44:19;16.10;;;8.13;;
31990;SDS011;18508;49.386;8.370;2024-02-16T04:46:50;15.90;;;8.43;;
31990;SDS011;18508;49.386;8.370;2024-02-16T04:49:22;16.63;;;8.15;;
31990;SDS011;18508;49.386;8.370;2024-02-16T04:51:53;16.05;;;8.38;;
31990;SDS011;18508;49.386;8.370;2024-02-16T04:54:23;17.33;;;7.93;;
31990;SDS011;18508;49.386;8.370;2024-02-16T04:56:53;13.80;;;8.40;;
31990;SDS011;18508;49.386;8.370;2024-02-16T04:59:22;11.80;;;7.63;;
31990;SDS011;18508;49.386;8.370;2024-02-16T05:01:55;12.90;;;7.53;;
31990;SDS011;18508;49.386;8.370;2024-02-16T05:04:27;20.20;;;10.75;;
31990;SDS011;18508;49.386;8.370;2024-02-16T05:06:55;14.35;;;8.80;;
31990;SDS011;18508;49.386;8.370;2024-02-16T05:09:29;14.98;;;8.90;;
31990;SDS011;18508;49.386;8.370;2024-02-16T05:12:01;11.88;;;6.82;;
31990;SDS011;18508;49.386;8.370;2024-02-16T05:14:31;16.95;;;7.38;;
31990;SDS011;18508;49.386;8.370;2024-02-16T05:17:00;15.82;;;7.45;;
31990;SDS011;18508;49.386;8.370;2024-02-16T05:19:31;10.88;;;7.03;;
31990;SDS011;18508;49.386;8.370;2024-02-16T05:22:03;15.20;;;7.80;;
31990;SDS011;18508;49.386;8.370;2024-02-16T05:24:35;20.85;;;8.10;;
31990;SDS011;18508;49.386;8.370;2024-02-16T05:27:04;15.38;;;6.80;;
31990;SDS011;18508;49.386;8.370;2024-02-16T05:29:34;11.07;;;7.80;;
31990;SDS011;18508;49.386;8.370;2024-02-16T05:32:02;15.98;;;8.00;;
31990;SDS011;18508;49.386;8.370;2024-02-16T05:34:32;13.02;;;7.10;;
31990;SDS011;18508;49.386;8.370;2024-02-16T05:37:06;13.27;;;7.47;;
31990;SDS011;18508;49.386;8.370;2024-02-16T05:39:38;15.13;;;8.25;;
31990;SDS011;18508;49.386;8.370;2024-02-16T05:42:21;13.50;;;9.10;;
31990;SDS011;18508;49.386;8.370;2024-02-16T05:44:50;14.90;;;7.82;;
31990;SDS011;18508;49.386;8.370;2024-02-16T05:47:21;12.93;;;7.68;;
31990;SDS011;18508;49.386;8.370;2024-02-16T05:49:50;13.00;;;7.78;;
31990;SDS011;18508;49.386;8.370;2024-02-16T05:52:20;15.43;;;9.07;;
31990;SDS011;18508;49.386;8.370;2024-02-16T05:54:51;15.48;;;7.82;;
31990;SDS011;18508;49.386;8.370;2024-02-16T05:57:22;15.55;;;7.97;;
31990;SDS011;18508;49.386;8.370;2024-02-16T05:59:52;17.52;;;8.25;;
31990;SDS011;18508;49.386;8.370;2024-02-16T06:02:24;18.92;;;9.95;;
31990;SDS011;18508;49.386;8.370;2024-02-16T06:04:54;14.88;;;8.98;;
31990;SDS011;18508;49.386;8.370;2024-02-16T06:07:23;20.38;;;9.07;;
31990;SDS011;18508;49.386;8.370;2024-02-16T06:09:56;15.63;;;8.38;;
31990;SDS011;18508;49.386;8.370;2024-02-16T06:14:54;12.82;;;8.15;;
31990;SDS011;18508;49.386;8.370;2024-02-16T06:17:24;17.38;;;9.52;;
31990;SDS011;18508;49.386;8.370;2024-02-16T06:19:54;15.85;;;9.10;;
31990;SDS011;18508;49.386;8.370;2024-02-16T06:22:24;16.48;;;9.15;;
31990;SDS011;18508;49.386;8.370;2024-02-16T06:24:54;17.35;;;9.65;;
31990;SDS011;18508;49.386;8.370;2024-02-16T06:27:26;17.63;;;10.43;;
31990;SDS011;18508;49.386;8.370;2024-02-16T06:29:56;16.08;;;9.75;;
31990;SDS011;18508;49.386;8.370;2024-02-16T06:32:27;13.13;;;8.68;;
31990;SDS011;18508;49.386;8.370;2024-02-16T06:34:58;16.48;;;9.23;;
31990;SDS011;18508;49.386;8.370;2024-02-16T06:37:29;16.15;;;9.00;;
31990;SDS011;18508;49.386;8.370;2024-02-16T06:40:01;15.95;;;8.80;;
31990;SDS011;18508;49.386;8.370;2024-02-16T06:42:31;16.80;;;8.23;;
31990;SDS011;18508;49.386;8.370;2024-02-16T06:45:02;16.70;;;8.52;;
31990;SDS011;18508;49.386;8.370;2024-02-16T06:47:32;13.70;;;8.40;;
31990;SDS011;18508;49.386;8.370;2024-02-16T06:50:03;13.43;;;7.93;;
31990;SDS011;18508;49.386;8.370;2024-02-16T06:52:35;15.00;;;7.78;;
31990;SDS011;18508;49.386;8.370;2024-02-16T06:55:06;12.43;;;7.88;;
31990;SDS011;18508;49.386;8.370;2024-02-16T06:57:38;16.08;;;8.68;;
31990;SDS011;18508;49.386;8.370;2024-02-16T07:00:09;14.25;;;8.73;;
31990;SDS011;18508;49.386;8.370;2024-02-16T07:02:41;13.82;;;7.90;;
31990;SDS011;18508;49.386;8.370;2024-02-16T07:05:14;14.98;;;7.80;;
31990;SDS011;18508;49.386;8.370;2024-02-16T07:07:46;13.20;;;7.70;;
31990;SDS011;18508;49.386;8.370;2024-02-16T07:10:20;14.85;;;8.55;;
31990;SDS011;18508;49.386;8.370;2024-02-16T07:12:52;13.88;;;7.75;;
31990;SDS011;18508;49.386;8.370;2024-02-16T07:15:22;12.68;;;7.88;;
31990;SDS011;18508;49.386;8.370;2024-02-16T07:17:55;13.27;;;7.18;;
31990;SDS011;18508;49.386;8.370;2024-02-16T07:20:26;13.80;;;7.75;;
31990;SDS011;18508;49.386;8.370;2024-02-16T07:22:58;10.55;;;6.75;;
31990;SDS011;18508;49.386;8.370;2024-02-16T07:25:31;14.02;;;8.25;;
31990;SDS011;18508;49.386;8.370;2024-02-16T07:28:02;12.75;;;6.90;;
31990;SDS011;18508;49.386;8.370;2024-02-16T07:30:34;14.40;;;7.35;;
31990;SDS011;18508;49.386;8.370;2024-02-16T07:33:09;15.80;;;7.63;;
31990;SDS011;18508;49.386;8.370;2024-02-16T07:35:39;12.20;;;6.85;;
31990;SDS011;18508;49.386;8.370;2024-02-16T07:38:10;14.18;;;7.60;;
31990;SDS011;18508;49.386;8.370;2024-02-16T07:40:41;14.27;;;7.20;;
31990;SDS011;18508;49.386;8.370;2024-02-16T07:43:13;15.18;;;7.30;;
31990;SDS011;18508;49.386;8.370;2024-02-16T07:45:44;10.73;;;7.28;;
31990;SDS011;18508;49.386;8.370;2024-02-16T07:48:14;12.32;;;7.15;;
31990;SDS011;18508;49.386;8.370;2024-02-16T07:50:43;14.52;;;7.70;;
31990;SDS011;18508;49.386;8.370;2024-02-16T07:53:13;11.32;;;7.22;;
31990;SDS011;18508;49.386;8.370;2024-02-16T07:55:46;13.10;;;7.38;;
31990;SDS011;18508;49.386;8.370;2024-02-16T07:58:17;11.23;;;7.05;;
31990;SDS011;18508;49.386;8.370;2024-02-16T08:00:49;16.50;;;7.50;;
31990;SDS011;18508;49.386;8.370;2024-02-16T08:03:20;13.13;;;7.50;;
31990;SDS011;18508;49.386;8.370;2024-02-16T08:05:51;11.68;;;7.10;;
31990;SDS011;18508;49.386;8.370;2024-02-16T08:08:21;12.88;;;7.53;;
31990;SDS011;18508;49.386;8.370;2024-02-16T08:10:53;15.88;;;8.18;;
31990;SDS011;18508;49.386;8.370;2024-02-16T08:13:23;11.68;;;6.43;;
31990;SDS011;18508;49.386;8.370;2024-02-16T08:15:52;12.10;;;7.25;;
31990;SDS011;18508;49.386;8.370;2024-02-16T08:18:22;12.88;;;7.30;;
31990;SDS011;18508;49.386;8.370;2024-02-16T08:20:52;12.93;;;7.47;;
31990;SDS011;18508;49.386;8.370;2024-02-16T08:23:21;13.77;;;7.55;;
31990;SDS011;18508;49.386;8.370;2024-02-16T08:25:52;11.73;;;6.90;;
31990;SDS011;18508;49.386;8.370;2024-02-16T08:28:23;10.20;;;6.75;;
31990;SDS011;18508;49.386;8.370;2024-02-16T08:30:52;11.40;;;7.18;;
31990;SDS011;18508;49.386;8.370;2024-02-16T08:33:21;13.63;;;7.75;;
31990;SDS011;18508;49.386;8.370;2024-02-16T08:35:50;10.52;;;7.40;;
31990;SDS011;18508;49.386;8.370;2024-02-16T08:38:19;12.57;;;6.93;;
31990;SDS011;18508;49.386;8.370;2024-02-16T08:40:49;10.65;;;7.30;;
31990;SDS011;18508;49.386;8.370;2024-02-16T08:43:21;13.82;;;7.78;;
31990;SDS011;18508;49.386;8.370;2024-02-16T08:45:51;13.73;;;7.68;;
31990;SDS011;18508;49.386;8.370;2024-02-16T08:48:24;11.17;;;7.50;;
31990;SDS011;18508;49.386;8.370;2024-02-16T08:50:54;11.00;;;6.78;;
31990;SDS011;18508;49.386;8.370;2024-02-16T08:53:24;13.45;;;7.57;;
31990;SDS011;18508;49.386;8.370;2024-02-16T08:55:55;11.63;;;7.32;;
31990;SDS011;18508;49.386;8.370;2024-02-16T08:58:28;12.23;;;7.97;;
31990;SDS011;18508;49.386;8.370;2024-02-16T09:01:01;11.98;;;6.93;;
31990;SDS011;18508;49.386;8.370;2024-02-16T09:03:34;11.20;;;7.37;;
31990;SDS011;18508;49.386;8.370;2024-02-16T09:06:07;14.48;;;7.78;;
31990;SDS011;18508;49.386;8.370;2024-02-16T09:08:37;12.32;;;7.53;;
31990;SDS011;18508;49.386;8.370;2024-02-16T09:11:07;10.88;;;7.32;;
31990;SDS011;18508;49.386;8.370;2024-02-16T09:13:43;11.23;;;7.18;;
31990;SDS011;18508;49.386;8.370;2024-02-16T09:16:13;11.52;;;6.65;;
31990;SDS011;18508;49.386;8.370;2024-02-16T09:18:45;11.93;;;6.28;;
31990;SDS011;18508;49.386;8.370;2024-02-16T09:21:15;13.45;;;6.47;;
31990;SDS011;18508;49.386;8.370;2024-02-16T09:23:47;12.60;;;6.80;;
31990;SDS011;18508;49.386;8.370;2024-02-16T09:26:16;11.10;;;6.57;;
31990;SDS011;18508;49.386;8.370;2024-02-16T09:28:48;8.85;;;5.88;;
31990;SDS011;18508;49.386;8.370;2024-02-16T09:31:19;10.77;;;6.10;;
31990;SDS011;18508;49.386;8.370;2024-02-16T09:33:49;10.10;;;6.30;;
31990;SDS011;18508;49.386;8.370;2024-02-16T09:36:18;9.02;;;6.20;;
31990;SDS011;18508;49.386;8.370;2024-02-16T09:38:50;11.98;;;5.70;;
31990;SDS011;18508;49.386;8.370;2024-02-16T09:41:22;11.07;;;5.43;;
31990;SDS011;18508;49.386;8.370;2024-02-16T09:43:58;12.02;;;5.88;;
31990;SDS011;18508;49.386;8.370;2024-02-16T09:49:00;12.70;;;5.53;;
31990;SDS011;18508;49.386;8.370;2024-02-16T09:51:35;8.30;;;5.80;;
31990;SDS011;18508;49.386;8.370;2024-02-16T09:54:06;10.07;;;5.18;;
31990;SDS011;18508;49.386;8.370;2024-02-16T09:56:35;11.25;;;5.47;;
31990;SDS011;18508;49.386;8.370;2024-02-16T09:59:08;10.13;;;4.40;;
31990;SDS011;18508;49.386;8.370;2024-02-16T10:01:39;8.83;;;3.97;;
31990;SDS011;18508;49.386;8.370;2024-02-16T10:04:09;7.43;;;3.72;;
31990;SDS011;18508;49.386;8.370;2024-02-16T10:06:47;9.30;;;4.05;;
31990;SDS011;18508;49.386;8.370;2024-02-16T10:09:23;9.38;;;3.55;;
31990;SDS011;18508;49.386;8.370;2024-02-16T10:11:53;7.97;;;3.28;;
31990;SDS011;18508;49.386;8.370;2024-02-16T10:14:24;6.00;;;3.47;;
31990;SDS011;18508;49.386;8.370;2024-02-16T10:16:59;6.95;;;3.60;;
31990;SDS011;18508;49.386;8.370;2024-02-16T10:19:30;8.82;;;3.65;;
31990;SDS011;18508;49.386;8.370;2024-02-16T10:22:11;6.75;;;3.72;;
31990;SDS011;18508;49.386;8.370;2024-02-16T10:24:40;8.82;;;3.88;;
31990;SDS011;18508;49.386;8.370;2024-02-16T10:27:13;6.32;;;3.47;;
31990;SDS011;18508;49.386;8.370;2024-02-16T10:29:47;7.38;;;3.47;;
31990;SDS011;18508;49.386;8.370;2024-02-16T10:32:18;7.75;;;2.97;;
31990;SDS011;18508;49.386;8.370;2024-02-16T10:34:48;6.28;;;2.90;;
31990;SDS011;18508;49.386;8.370;2024-02-16T10:37:18;9.82;;;3.50;;
31990;SDS011;18508;49.386;8.370;2024-02-16T10:39:48;7.60;;;2.97;;
31990;SDS011;18508;49.386;8.370;2024-02-16T10:42:23;5.82;;;2.70;;
31990;SDS011;18508;49.386;8.370;2024-02-16T10:44:56;7.18;;;2.50;;
31990;SDS011;18508;49.386;8.370;2024-02-16T10:47:26;5.57;;;2.33;;
31990;SDS011;18508;49.386;8.370;2024-02-16T10:49:58;6.15;;;2.45;;
31990;SDS011;18508;49.386;8.370;2024-02-16T10:52:27;9.40;;;3.40;;
31990;SDS011;18508;49.386;8.370;2024-02-16T10:54:56;6.30;;;2.65;;
31990;SDS011;18508;49.386;8.370;2024-02-16T10:57:25;7.38;;;2.60;;
31990;SDS011;18508;49.386;8.370;2024-02-16T10:59:58;6.22;;;2.30;;
31990;SDS011;18508;49.386;8.370;2024-02-16T11:02:26;5.65;;;2.17;;
31990;SDS011;18508;49.386;8.370;2024-02-16T11:04:56;8.65;;;3.08;;
31990;SDS011;18508;49.386;8.370;2024-02-16T11:07:24;6.32;;;2.70;;
31990;SDS011;18508;49.386;8.370;2024-02-16T11:09:53;5.35;;;2.55;;
31990;SDS011;18508;49.386;8.370;2024-02-16T11:12:32;7.22;;;2.45;;
31990;SDS011;18508;49.386;8.370;2024-02-16T11:15:05;5.25;;;2.75;;
31990;SDS011;18508;49.386;8.370;2024-02-16T11:17:37;5.07;;;2.42;;
31990;SDS011;18508;49.386;8.370;2024-02-16T11:20:07;8.02;;;2.63;;
31990;SDS011;18508;49.386;8.370;2024-02-16T11:22:37;4.95;;;2.55;;
31990;SDS011;18508;49.386;8.370;2024-02-16T11:25:09;4.88;;;2.05;;
31990;SDS011;18508;49.386;8.370;2024-02-16T11:27:38;4.35;;;2.40;;
31990;SDS011;18508;49.386;8.370;2024-02-16T11:30:11;6.22;;;3.00;;
31990;SDS011;18508;49.386;8.370;2024-02-16T11:32:42;5.40;;;2.47;;
31990;SDS011;18508;49.386;8.370;2024-02-16T11:35:12;5.28;;;2.17;;
31990;SDS011;18508;49.386;8.370;2024-02-16T11:37:43;5.80;;;2.47;;
31990;SDS011;18508;49.386;8.370;2024-02-16T11:40:14;8.07;;;2.55;;
31990;SDS011;18508;49.386;8.370;2024-02-16T11:42:43;6.30;;;2.28;;
31990;SDS011;18508;49.386;8.370;2024-02-16T11:45:15;4.45;;;2.42;;
31990;SDS011;18508;49.386;8.370;2024-02-16T11:47:44;6.13;;;2.65;;
31990;SDS011;18508;49.386;8.370;2024-02-16T11:50:13;7.93;;;3.15;;
31990;SDS011;18508;49.386;8.370;2024-02-16T11:52:45;6.38;;;2.38;;
31990;SDS011;18508;49.386;8.370;2024-02-16T11:55:19;7.38;;;2.50;;
31990;SDS011;18508;49.386;8.370;2024-02-16T11:57:48;6.07;;;2.45;;
31990;SDS011;18508;49.386;8.370;2024-02-16T12:00:20;8.07;;;2.50;;
31990;SDS011;18508;49.386;8.370;2024-02-16T12:02:58;6.70;;;2.20;;
31990;SDS011;18508;49.386;8.370;2024-02-16T12:05:28;5.40;;;1.95;;
31990;SDS011;18508;49.386;8.370;2024-02-16T12:07:58;4.95;;;1.95;;
31990;SDS011;18508;49.386;8.370;2024-02-16T12:10:28;5.15;;;2.28;;
31990;SDS011;18508;49.386;8.370;2024-02-16T12:12:57;6.88;;;2.30;;
31990;SDS011;18508;49.386;8.370;2024-02-16T12:15:32;6.80;;;2.00;;
31990;SDS011;18508;49.386;8.370;2024-02-16T12:18:02;6.25;;;2.60;;
31990;SDS011;18508;49.386;8.370;2024-02-16T12:20:32;7.18;;;2.97;;
31990;SDS011;18508;49.386;8.370;2024-02-16T12:23:10;12.82;;;2.40;;
31990;SDS011;18508;49.386;8.370;2024-02-16T12:25:40;4.80;;;1.90;;
31990;SDS011;18508;49.386;8.370;2024-02-16T12:28:09;6.68;;;1.98;;
31990;SDS011;18508;49.386;8.370;2024-02-16T12:30:40;7.25;;;2.25;;
31990;SDS011;18508;49.386;8.370;2024-02-16T12:33:09;7.93;;;2.90;;
31990;SDS011;18508;49.386;8.370;2024-02-16T12:35:38;6.03;;;2.35;;
31990;SDS011;18508;49.386;8.370;2024-02-16T12:38:07;6.38;;;2.30;;
31990;SDS011;18508;49.386;8.370;2024-02-16T12:40:36;5.35;;;1.80;;
31990;SDS011;18508;49.386;8.370;2024-02-16T12:43:05;4.72;;;2.00;;
31990;SDS011;18508;49.386;8.370;2024-02-16T12:45:35;10.90;;;2.83;;
31990;SDS011;18508;49.386;8.370;2024-02-16T12:48:07;10.48;;;2.10;;
31990;SDS011;18508;49.386;8.370;2024-02-16T12:50:40;8.32;;;2.10;;
31990;SDS011;18508;49.386;8.370;2024-02-16T12:53:09;5.63;;;1.83;;
31990;SDS011;18508;49.386;8.370;2024-02-16T12:55:38;6.65;;;2.45;;
31990;SDS011;18508;49.386;8.370;2024-02-16T12:58:08;5.18;;;1.83;;
31990;SDS011;18508;49.386;8.370;2024-02-16T13:00:39;6.70;;;2.30;;
31990;SDS011;18508;49.386;8.370;2024-02-16T13:03:09;8.57;;;1.75;;
31990;SDS011;18508;49.386;8.370;2024-02-16T13:05:38;8.43;;;2.00;;
31990;SDS011;18508;49.386;8.370;2024-02-16T13:08:10;6.65;;;2.53;;
31990;SDS011;18508;49.386;8.370;2024-02-16T13:10:38;6.95;;;1.92;;
31990;SDS011;18508;49.386;8.370;2024-02-16T13:13:09;6.63;;;2.25;;
31990;SDS011;18508;49.386;8.370;2024-02-16T13:15:39;6.57;;;2.30;;
31990;SDS011;18508;49.386;8.370;2024-02-16T13:18:10;8.15;;;3.25;;
31990;SDS011;18508;49.386;8.370;2024-02-16T13:20:42;12.57;;;4.20;;
31990;SDS011;18508;49.386;8.370;2024-02-16T13:23:13;5.20;;;2.10;;
31990;SDS011;18508;49.386;8.370;2024-02-16T13:25:42;4.00;;;1.65;;
31990;SDS011;18508;49.386;8.370;2024-02-16T13:28:11;5.35;;;2.08;;
31990;SDS011;18508;49.386;8.370;2024-02-16T13:30:40;6.55;;;1.70;;
31990;SDS011;18508;49.386;8.370;2024-02-16T13:33:13;7.38;;;2.55;;
31990;SDS011;18508;49.386;8.370;2024-02-16T13:35:44;4.30;;;1.98;;
31990;SDS011;18508;49.386;8.370;2024-02-16T13:38:15;5.55;;;1.67;;
31990;SDS011;18508;49.386;8.370;2024-02-16T13:40:45;3.45;;;1.70;;
31990;SDS011;18508;49.386;8.370;2024-02-16T13:43:15;7.10;;;1.98;;
31990;SDS011;18508;49.386;8.370;2024-02-16T13:45:49;9.00;;;2.67;;
31990;SDS011;18508;49.386;8.370;2024-02-16T13:48:20;7.85;;;2.53;;
31990;SDS011;18508;49.386;8.370;2024-02-16T13:50:51;4.72;;;2.08;;
31990;SDS011;18508;49.386;8.370;2024-02-16T13:53:23;3.60;;;2.00;;
31990;SDS011;18508;49.386;8.370;2024-02-16T13:55:53;5.60;;;2.03;;
31990;SDS011;18508;49.386;8.370;2024-02-16T13:58:28;5.35;;;1.80;;
31990;SDS011;18508;49.386;8.370;2024-02-16T14:00:58;4.13;;;1.80;;
31990;SDS011;18508;49.386;8.370;2024-02-16T14:03:29;5.47;;;2.00;;
31990;SDS011;18508;49.386;8.370;2024-02-16T14:06:07;4.30;;;1.60;;
31990;SDS011;18508;49.386;8.370;2024-02-16T14:08:43;10.55;;;2.03;;
31990;SDS011;18508;49.386;8.370;2024-02-16T14:11:14;6.25;;;2.20;;
31990;SDS011;18508;49.386;8.370;2024-02-16T14:13:43;5.90;;;2.15;;
31990;SDS011;18508;49.386;8.370;2024-02-16T14:16:15;6.30;;;2.03;;
31990;SDS011;18508;49.386;8.370;2024-02-16T14:18:45;4.57;;;2.13;;
31990;SDS011;18508;49.386;8.370;2024-02-16T14:21:15;4.28;;;2.17;;
31990;SDS011;18508;49.386;8.370;2024-02-16T14:23:46;6.40;;;2.10;;
31990;SDS011;18508;49.386;8.370;2024-02-16T14:26:17;3.95;;;1.92;;
31990;SDS011;18508;49.386;8.370;2024-02-16T14:28:47;6.65;;;1.88;;
31990;SDS011;18508;49.386;8.370;2024-02-16T14:31:17;5.28;;;1.85;;
31990;SDS011;18508;49.386;8.370;2024-02-16T14:33:48;5.65;;;2.17;;
31990;SDS011;18508;49.386;8.370;2024-02-16T14:36:18;5.93;;;2.22;;
31990;SDS011;18508;49.386;8.370;2024-02-16T14:38:48;5.38;;;2.40;;
31990;SDS011;18508;49.386;8.370;2024-02-16T14:41:20;8.52;;;2.50;;
31990;SDS011;18508;49.386;8.370;2024-02-16T14:43:50;6.93;;;3.08;;
31990;SDS011;18508;49.386;8.370;2024-02-16T14:46:19;10.38;;;2.97;;
31990;SDS011;18508;49.386;8.370;2024-02-16T14:48:54;6.63;;;2.92;;
31990;SDS011;18508;49.386;8.370;2024-02-16T14:51:23;5.55;;;2.55;;
31990;SDS011;18508;49.386;8.370;2024-02-16T14:53:53;5.90;;;2.88;;
31990;SDS011;18508;49.386;8.370;2024-02-16T14:56:24;7.65;;;2.30;;
31990;SDS011;18508;49.386;8.370;2024-02-16T14:58:55;7.93;;;2.88;;
31990;SDS011;18508;49.386;8.370;2024-02-16T15:01:24;5.53;;;2.92;;
31990;SDS011;18508;49.386;8.370;2024-02-16T15:03:54;5.43;;;2.10;;
31990;SDS011;18508;49.386;8.370;2024-02-16T15:06:23;5.78;;;2.22;;